sensor_id;sensor_type;location;lat;lon;timestamp;P1;durP1;ratioP1;P2;durP2;ratioP2
36423;SDS011;22458;45.328;9.514;2023-02-28T00:01:06;7.88;;;5.10;;
36423;SDS011;22458;45.328;9.514;2023-02-28T00:03:32;5.85;;;4.88;;
36423;SDS011;22458;45.328;9.514;2023-02-28T00:06:00;5.30;;;4.22;;
36423;SDS011;22458;45.328;9.514;2023-02-28T00:08:30;5.53;;;4.30;;
36423;SDS011;22458;45.328;9.514;2023-02-28T00:11:00;7.65;;;4.35;;
36423;SDS011;22458;45.328;9.514;2023-02-28T00:13:37;6.90;;;4.63;;
36423;SDS011;22458;45.328;9.514;2023-02-28T00:16:11;4.65;;;3.80;;
36423;SDS011;22458;45.328;9.514;2023-02-28T00:18:39;5.53;;;4.07;;
36423;SDS011;22458;45.328;9.514;2023-02-28T00:21:05;5.93;;;4.40;;
36423;SDS011;22458;45.328;9.514;2023-02-28T00:23:31;8.45;;;4.50;;
36423;SDS011;22458;45.328;9.514;2023-02-28T00:25:57;7.63;;;4.72;;
36423;SDS011;22458;45.328;9.514;2023-02-28T00:28:23;7.05;;;4.60;;
36423;SDS011;22458;45.328;9.514;2023-02-28T00:30:49;5.60;;;3.97;;
36423;SDS011;22458;45.328;9.514;2023-02-28T00:33:15;8.32;;;4.93;;
36423;SDS011;22458;45.328;9.514;2023-02-28T00:35:41;7.00;;;4.85;;
36423;SDS011;22458;45.328;9.514;2023-02-28T00:38:08;8.85;;;5.15;;
36423;SDS011;22458;45.328;9.514;2023-02-28T00:40:34;8.32;;;4.45;;
36423;SDS011;22458;45.328;9.514;2023-02-28T00:43:00;7.50;;;4.75;;
36423;SDS011;22458;45.328;9.514;2023-02-28T00:45:26;6.95;;;4.40;;
36423;SDS011;22458;45.328;9.514;2023-02-28T00:47:51;6.55;;;4.30;;
36423;SDS011;22458;45.328;9.514;2023-02-28T00:50:18;6.93;;;4.88;;
36423;SDS011;22458;45.328;9.514;2023-02-28T00:52:45;6.20;;;4.47;;
36423;SDS011;22458;45.328;9.514;2023-02-28T00:55:13;5.43;;;4.15;;
36423;SDS011;22458;45.328;9.514;2023-02-28T00:57:39;10.85;;;5.45;;
36423;SDS011;22458;45.328;9.514;2023-02-28T01:00:05;7.38;;;4.47;;
36423;SDS011;22458;45.328;9.514;2023-02-28T01:02:32;9.02;;;5.00;;
36423;SDS011;22458;45.328;9.514;2023-02-28T01:04:58;8.25;;;5.03;;
36423;SDS011;22458;45.328;9.514;2023-02-28T01:07:23;6.68;;;5.35;;
36423;SDS011;22458;45.328;9.514;2023-02-28T01:09:49;7.55;;;4.70;;
36423;SDS011;22458;45.328;9.514;2023-02-28T01:12:15;7.68;;;4.88;;
36423;SDS011;22458;45.328;9.514;2023-02-28T01:14:41;7.28;;;5.20;;
36423;SDS011;22458;45.328;9.514;2023-02-28T01:17:07;6.85;;;5.13;;
36423;SDS011;22458;45.328;9.514;2023-02-28T01:19:33;7.88;;;4.97;;
36423;SDS011;22458;45.328;9.514;2023-02-28T01:22:02;8.80;;;4.80;;
36423;SDS011;22458;45.328;9.514;2023-02-28T01:24:28;6.40;;;4.93;;
36423;SDS011;22458;45.328;9.514;2023-02-28T01:26:54;6.85;;;4.60;;
36423;SDS011;22458;45.328;9.514;2023-02-28T01:29:20;6.35;;;4.03;;
36423;SDS011;22458;45.328;9.514;2023-02-28T01:31:46;5.45;;;3.95;;
36423;SDS011;22458;45.328;9.514;2023-02-28T01:34:12;6.43;;;4.25;;
36423;SDS011;22458;45.328;9.514;2023-02-28T01:36:38;4.03;;;2.90;;
36423;SDS011;22458;45.328;9.514;2023-02-28T01:39:03;6.30;;;3.67;;
36423;SDS011;22458;45.328;9.514;2023-02-28T01:41:30;5.00;;;4.03;;
36423;SDS011;22458;45.328;9.514;2023-02-28T01:44:06;6.00;;;3.92;;
36423;SDS011;22458;45.328;9.514;2023-02-28T01:46:54;7.07;;;3.70;;
36423;SDS011;22458;45.328;9.514;2023-02-28T01:49:20;7.63;;;4.00;;
36423;SDS011;22458;45.328;9.514;2023-02-28T01:51:49;7.38;;;4.32;;
36423;SDS011;22458;45.328;9.514;2023-02-28T01:54:24;7.43;;;4.05;;
36423;SDS011;22458;45.328;9.514;2023-02-28T01:56:55;5.57;;;3.65;;
36423;SDS011;22458;45.328;9.514;2023-02-28T01:59:47;6.55;;;4.25;;
36423;SDS011;22458;45.328;9.514;2023-02-28T02:02:19;5.75;;;4.25;;
36423;SDS011;22458;45.328;9.514;2023-02-28T02:05:06;7.95;;;4.68;;
36423;SDS011;22458;45.328;9.514;2023-02-28T02:07:34;6.55;;;4.72;;
36423;SDS011;22458;45.328;9.514;2023-02-28T02:15:28;6.75;;;4.50;;
36423;SDS011;22458;45.328;9.514;2023-02-28T02:21:15;7.75;;;4.40;;
36423;SDS011;22458;45.328;9.514;2023-02-28T02:29:56;9.38;;;5.03;;
36423;SDS011;22458;45.328;9.514;2023-02-28T02:35:19;9.02;;;5.22;;
36423;SDS011;22458;45.328;9.514;2023-02-28T02:38:03;9.73;;;4.93;;
36423;SDS011;22458;45.328;9.514;2023-02-28T02:43:51;12.02;;;6.90;;
36423;SDS011;22458;45.328;9.514;2023-02-28T02:46:37;7.22;;;4.88;;
36423;SDS011;22458;45.328;9.514;2023-02-28T02:49:28;6.50;;;4.43;;
36423;SDS011;22458;45.328;9.514;2023-02-28T02:52:00;7.50;;;5.30;;
36423;SDS011;22458;45.328;9.514;2023-02-28T02:54:36;8.50;;;4.72;;
36423;SDS011;22458;45.328;9.514;2023-02-28T02:57:07;6.93;;;4.95;;
36423;SDS011;22458;45.328;9.514;2023-02-28T02:59:38;5.93;;;4.00;;
36423;SDS011;22458;45.328;9.514;2023-02-28T03:02:06;5.43;;;4.10;;
36423;SDS011;22458;45.328;9.514;2023-02-28T03:04:38;10.23;;;4.80;;
36423;SDS011;22458;45.328;9.514;2023-02-28T03:07:08;5.47;;;3.97;;
36423;SDS011;22458;45.328;9.514;2023-02-28T03:09:34;6.47;;;4.57;;
36423;SDS011;22458;45.328;9.514;2023-02-28T03:12:06;5.25;;;4.20;;
36423;SDS011;22458;45.328;9.514;2023-02-28T03:31:25;6.38;;;3.83;;
36423;SDS011;22458;45.328;9.514;2023-02-28T03:34:05;7.35;;;4.95;;
36423;SDS011;22458;45.328;9.514;2023-02-28T03:36:35;5.75;;;4.40;;
36423;SDS011;22458;45.328;9.514;2023-02-28T03:39:31;7.88;;;4.18;;
36423;SDS011;22458;45.328;9.514;2023-02-28T03:42:05;6.22;;;4.07;;
36423;SDS011;22458;45.328;9.514;2023-02-28T03:44:49;6.05;;;4.35;;
36423;SDS011;22458;45.328;9.514;2023-02-28T03:49:56;5.40;;;4.47;;
36423;SDS011;22458;45.328;9.514;2023-02-28T03:52:40;8.45;;;4.35;;
36423;SDS011;22458;45.328;9.514;2023-02-28T03:55:16;5.95;;;4.78;;
36423;SDS011;22458;45.328;9.514;2023-02-28T04:00:40;8.45;;;5.35;;
36423;SDS011;22458;45.328;9.514;2023-02-28T04:03:16;6.90;;;4.85;;
36423;SDS011;22458;45.328;9.514;2023-02-28T04:05:50;7.97;;;5.28;;
36423;SDS011;22458;45.328;9.514;2023-02-28T04:08:18;10.30;;;5.57;;
36423;SDS011;22458;45.328;9.514;2023-02-28T04:10:44;5.35;;;4.47;;
36423;SDS011;22458;45.328;9.514;2023-02-28T04:13:15;6.30;;;4.80;;
36423;SDS011;22458;45.328;9.514;2023-02-28T04:15:41;9.65;;;5.03;;
36423;SDS011;22458;45.328;9.514;2023-02-28T04:18:07;6.75;;;5.32;;
36423;SDS011;22458;45.328;9.514;2023-02-28T04:20:33;7.30;;;5.13;;
36423;SDS011;22458;45.328;9.514;2023-02-28T04:22:59;8.93;;;4.75;;
36423;SDS011;22458;45.328;9.514;2023-02-28T04:25:24;5.78;;;4.63;;
36423;SDS011;22458;45.328;9.514;2023-02-28T04:27:50;7.90;;;4.82;;
36423;SDS011;22458;45.328;9.514;2023-02-28T04:30:16;6.57;;;4.82;;
36423;SDS011;22458;45.328;9.514;2023-02-28T04:32:42;8.02;;;4.88;;
36423;SDS011;22458;45.328;9.514;2023-02-28T04:35:07;5.95;;;5.20;;
36423;SDS011;22458;45.328;9.514;2023-02-28T04:37:33;6.65;;;5.18;;
36423;SDS011;22458;45.328;9.514;2023-02-28T04:40:02;6.85;;;5.07;;
36423;SDS011;22458;45.328;9.514;2023-02-28T04:42:28;9.13;;;6.53;;
36423;SDS011;22458;45.328;9.514;2023-02-28T04:45:00;6.75;;;4.45;;
36423;SDS011;22458;45.328;9.514;2023-02-28T04:47:27;7.88;;;4.97;;
36423;SDS011;22458;45.328;9.514;2023-02-28T04:49:53;7.22;;;5.18;;
36423;SDS011;22458;45.328;9.514;2023-02-28T04:52:19;6.85;;;4.85;;
36423;SDS011;22458;45.328;9.514;2023-02-28T04:54:45;9.13;;;5.90;;
36423;SDS011;22458;45.328;9.514;2023-02-28T04:57:10;7.13;;;5.68;;
36423;SDS011;22458;45.328;9.514;2023-02-28T04:59:36;6.30;;;5.00;;
36423;SDS011;22458;45.328;9.514;2023-02-28T05:02:03;7.25;;;5.47;;
36423;SDS011;22458;45.328;9.514;2023-02-28T05:04:35;7.40;;;6.07;;
36423;SDS011;22458;45.328;9.514;2023-02-28T05:07:01;9.30;;;6.15;;
36423;SDS011;22458;45.328;9.514;2023-02-28T05:09:28;8.57;;;6.30;;
36423;SDS011;22458;45.328;9.514;2023-02-28T05:11:54;9.57;;;5.93;;
36423;SDS011;22458;45.328;9.514;2023-02-28T05:14:21;9.38;;;6.32;;
36423;SDS011;22458;45.328;9.514;2023-02-28T05:16:47;9.75;;;6.72;;
36423;SDS011;22458;45.328;9.514;2023-02-28T05:19:12;7.38;;;6.10;;
36423;SDS011;22458;45.328;9.514;2023-02-28T05:21:39;7.45;;;5.97;;
36423;SDS011;22458;45.328;9.514;2023-02-28T05:24:10;7.93;;;6.55;;
36423;SDS011;22458;45.328;9.514;2023-02-28T05:26:37;8.77;;;6.45;;
36423;SDS011;22458;45.328;9.514;2023-02-28T05:29:08;7.28;;;6.00;;
36423;SDS011;22458;45.328;9.514;2023-02-28T05:31:34;8.30;;;6.22;;
36423;SDS011;22458;45.328;9.514;2023-02-28T05:34:00;9.00;;;5.93;;
36423;SDS011;22458;45.328;9.514;2023-02-28T05:36:26;9.13;;;6.72;;
36423;SDS011;22458;45.328;9.514;2023-02-28T05:38:52;9.60;;;7.28;;
36423;SDS011;22458;45.328;9.514;2023-02-28T05:41:19;9.88;;;6.70;;
36423;SDS011;22458;45.328;9.514;2023-02-28T05:43:45;9.50;;;6.68;;
36423;SDS011;22458;45.328;9.514;2023-02-28T05:46:12;9.27;;;6.53;;
36423;SDS011;22458;45.328;9.514;2023-02-28T05:48:38;8.98;;;6.57;;
36423;SDS011;22458;45.328;9.514;2023-02-28T05:51:05;9.38;;;6.50;;
36423;SDS011;22458;45.328;9.514;2023-02-28T05:53:33;7.70;;;6.00;;
36423;SDS011;22458;45.328;9.514;2023-02-28T05:55:59;7.53;;;6.03;;
36423;SDS011;22458;45.328;9.514;2023-02-28T05:58:25;9.95;;;6.72;;
36423;SDS011;22458;45.328;9.514;2023-02-28T06:00:55;10.48;;;6.40;;
36423;SDS011;22458;45.328;9.514;2023-02-28T06:03:22;9.20;;;6.47;;
36423;SDS011;22458;45.328;9.514;2023-02-28T06:05:47;8.25;;;6.05;;
36423;SDS011;22458;45.328;9.514;2023-02-28T06:08:13;9.07;;;6.50;;
36423;SDS011;22458;45.328;9.514;2023-02-28T06:10:39;9.55;;;6.32;;
36423;SDS011;22458;45.328;9.514;2023-02-28T06:13:05;9.80;;;7.43;;
36423;SDS011;22458;45.328;9.514;2023-02-28T06:15:31;9.02;;;6.72;;
36423;SDS011;22458;45.328;9.514;2023-02-28T06:17:57;7.32;;;5.25;;
36423;SDS011;22458;45.328;9.514;2023-02-28T06:20:24;9.05;;;7.05;;
36423;SDS011;22458;45.328;9.514;2023-02-28T06:22:54;8.98;;;7.07;;
36423;SDS011;22458;45.328;9.514;2023-02-28T06:25:21;8.25;;;6.78;;
36423;SDS011;22458;45.328;9.514;2023-02-28T06:27:47;9.00;;;6.30;;
36423;SDS011;22458;45.328;9.514;2023-02-28T06:30:13;8.65;;;6.70;;
36423;SDS011;22458;45.328;9.514;2023-02-28T06:32:39;8.50;;;6.35;;
36423;SDS011;22458;45.328;9.514;2023-02-28T06:35:05;7.85;;;5.72;;
36423;SDS011;22458;45.328;9.514;2023-02-28T06:37:32;8.25;;;6.05;;
36423;SDS011;22458;45.328;9.514;2023-02-28T06:39:57;9.10;;;6.97;;
36423;SDS011;22458;45.328;9.514;2023-02-28T06:42:24;9.27;;;7.22;;
36423;SDS011;22458;45.328;9.514;2023-02-28T06:44:56;12.70;;;7.57;;
36423;SDS011;22458;45.328;9.514;2023-02-28T06:47:23;13.57;;;7.13;;
36423;SDS011;22458;45.328;9.514;2023-02-28T06:49:49;8.10;;;6.05;;
36423;SDS011;22458;45.328;9.514;2023-02-28T06:52:15;8.27;;;6.40;;
36423;SDS011;22458;45.328;9.514;2023-02-28T06:54:41;8.48;;;6.47;;
36423;SDS011;22458;45.328;9.514;2023-02-28T06:57:07;11.13;;;7.15;;
36423;SDS011;22458;45.328;9.514;2023-02-28T06:59:33;10.15;;;6.22;;
36423;SDS011;22458;45.328;9.514;2023-02-28T07:02:00;10.07;;;7.25;;
36423;SDS011;22458;45.328;9.514;2023-02-28T07:04:27;9.25;;;7.13;;
36423;SDS011;22458;45.328;9.514;2023-02-28T07:06:54;9.75;;;7.00;;
36423;SDS011;22458;45.328;9.514;2023-02-28T07:09:21;10.98;;;7.50;;
36423;SDS011;22458;45.328;9.514;2023-02-28T07:11:48;9.32;;;6.80;;
36423;SDS011;22458;45.328;9.514;2023-02-28T07:14:14;9.68;;;7.35;;
36423;SDS011;22458;45.328;9.514;2023-02-28T07:16:39;9.73;;;6.72;;
36423;SDS011;22458;45.328;9.514;2023-02-28T07:19:05;9.25;;;7.05;;
36423;SDS011;22458;45.328;9.514;2023-02-28T07:21:31;11.38;;;7.15;;
36423;SDS011;22458;45.328;9.514;2023-02-28T07:23:57;7.75;;;6.70;;
36423;SDS011;22458;45.328;9.514;2023-02-28T07:26:22;9.85;;;6.55;;
36423;SDS011;22458;45.328;9.514;2023-02-28T07:28:48;8.07;;;5.97;;
36423;SDS011;22458;45.328;9.514;2023-02-28T07:31:15;13.52;;;7.63;;
36423;SDS011;22458;45.328;9.514;2023-02-28T07:33:42;10.35;;;7.10;;
36423;SDS011;22458;45.328;9.514;2023-02-28T07:36:09;9.63;;;7.25;;
36423;SDS011;22458;45.328;9.514;2023-02-28T07:38:43;10.75;;;7.00;;
36423;SDS011;22458;45.328;9.514;2023-02-28T07:41:14;9.75;;;7.38;;
36423;SDS011;22458;45.328;9.514;2023-02-28T07:43:41;10.25;;;7.43;;
36423;SDS011;22458;45.328;9.514;2023-02-28T07:46:08;8.30;;;6.45;;
36423;SDS011;22458;45.328;9.514;2023-02-28T07:48:35;9.05;;;6.68;;
36423;SDS011;22458;45.328;9.514;2023-02-28T07:51:01;9.40;;;7.40;;
36423;SDS011;22458;45.328;9.514;2023-02-28T07:53:27;9.60;;;6.82;;
36423;SDS011;22458;45.328;9.514;2023-02-28T07:55:54;10.57;;;8.02;;
36423;SDS011;22458;45.328;9.514;2023-02-28T07:58:21;10.68;;;7.75;;
36423;SDS011;22458;45.328;9.514;2023-02-28T08:00:47;9.13;;;7.45;;
36423;SDS011;22458;45.328;9.514;2023-02-28T08:03:12;11.93;;;7.68;;
36423;SDS011;22458;45.328;9.514;2023-02-28T08:05:41;12.05;;;8.15;;
36423;SDS011;22458;45.328;9.514;2023-02-28T08:08:08;10.80;;;7.93;;
36423;SDS011;22458;45.328;9.514;2023-02-28T08:10:34;12.20;;;8.20;;
36423;SDS011;22458;45.328;9.514;2023-02-28T08:12:59;11.20;;;7.75;;
36423;SDS011;22458;45.328;9.514;2023-02-28T08:15:25;11.40;;;8.40;;
36423;SDS011;22458;45.328;9.514;2023-02-28T08:17:51;13.23;;;8.35;;
36423;SDS011;22458;45.328;9.514;2023-02-28T08:20:17;12.75;;;8.70;;
36423;SDS011;22458;45.328;9.514;2023-02-28T08:22:43;12.50;;;7.47;;
36423;SDS011;22458;45.328;9.514;2023-02-28T08:25:09;11.27;;;7.38;;
36423;SDS011;22458;45.328;9.514;2023-02-28T08:27:36;11.73;;;7.72;;
36423;SDS011;22458;45.328;9.514;2023-02-28T08:30:02;11.00;;;8.15;;
36423;SDS011;22458;45.328;9.514;2023-02-28T08:32:29;10.75;;;8.20;;
36423;SDS011;22458;45.328;9.514;2023-02-28T08:34:55;13.57;;;8.48;;
36423;SDS011;22458;45.328;9.514;2023-02-28T08:37:20;10.35;;;8.10;;
36423;SDS011;22458;45.328;9.514;2023-02-28T08:39:47;10.27;;;7.78;;
36423;SDS011;22458;45.328;9.514;2023-02-28T08:42:13;11.25;;;8.02;;
36423;SDS011;22458;45.328;9.514;2023-02-28T08:44:38;10.80;;;7.93;;
36423;SDS011;22458;45.328;9.514;2023-02-28T08:47:05;9.55;;;7.32;;
36423;SDS011;22458;45.328;9.514;2023-02-28T08:49:31;11.73;;;7.65;;
36423;SDS011;22458;45.328;9.514;2023-02-28T08:51:57;10.43;;;7.22;;
36423;SDS011;22458;45.328;9.514;2023-02-28T08:54:23;8.93;;;7.15;;
36423;SDS011;22458;45.328;9.514;2023-02-28T08:56:49;11.73;;;8.60;;
36423;SDS011;22458;45.328;9.514;2023-02-28T08:59:15;10.90;;;7.00;;
36423;SDS011;22458;45.328;9.514;2023-02-28T09:01:41;9.35;;;7.57;;
36423;SDS011;22458;45.328;9.514;2023-02-28T09:04:08;8.38;;;7.05;;
36423;SDS011;22458;45.328;9.514;2023-02-28T09:06:35;9.80;;;7.10;;
36423;SDS011;22458;45.328;9.514;2023-02-28T09:09:01;11.68;;;8.05;;
36423;SDS011;22458;45.328;9.514;2023-02-28T09:11:29;11.32;;;7.70;;
36423;SDS011;22458;45.328;9.514;2023-02-28T09:13:55;8.88;;;6.68;;
36423;SDS011;22458;45.328;9.514;2023-02-28T09:16:21;9.10;;;6.90;;
36423;SDS011;22458;45.328;9.514;2023-02-28T09:18:47;11.07;;;6.75;;
36423;SDS011;22458;45.328;9.514;2023-02-28T09:21:14;10.50;;;7.43;;
36423;SDS011;22458;45.328;9.514;2023-02-28T09:23:42;10.35;;;7.43;;
36423;SDS011;22458;45.328;9.514;2023-02-28T09:26:12;9.25;;;7.03;;
36423;SDS011;22458;45.328;9.514;2023-02-28T09:28:40;8.88;;;7.30;;
36423;SDS011;22458;45.328;9.514;2023-02-28T09:31:05;8.98;;;7.20;;
36423;SDS011;22458;45.328;9.514;2023-02-28T09:33:31;10.07;;;7.85;;
36423;SDS011;22458;45.328;9.514;2023-02-28T09:35:58;9.48;;;7.35;;
36423;SDS011;22458;45.328;9.514;2023-02-28T09:38:25;9.63;;;7.72;;
36423;SDS011;22458;45.328;9.514;2023-02-28T09:40:53;10.13;;;7.22;;
36423;SDS011;22458;45.328;9.514;2023-02-28T09:48:54;11.80;;;7.88;;
36423;SDS011;22458;45.328;9.514;2023-02-28T09:54:15;9.52;;;7.18;;
36423;SDS011;22458;45.328;9.514;2023-02-28T09:56:49;9.25;;;7.10;;
36423;SDS011;22458;45.328;9.514;2023-02-28T10:04:50;13.20;;;7.15;;
36423;SDS011;22458;45.328;9.514;2023-02-28T10:07:25;9.25;;;7.20;;
36423;SDS011;22458;45.328;9.514;2023-02-28T10:10:15;8.80;;;6.78;;
36423;SDS011;22458;45.328;9.514;2023-02-28T10:13:04;7.18;;;5.90;;
36423;SDS011;22458;45.328;9.514;2023-02-28T10:15:56;8.25;;;6.70;;
36423;SDS011;22458;45.328;9.514;2023-02-28T10:18:43;8.60;;;6.40;;
36423;SDS011;22458;45.328;9.514;2023-02-28T10:21:35;9.63;;;7.18;;
36423;SDS011;22458;45.328;9.514;2023-02-28T10:24:28;9.40;;;6.65;;
36423;SDS011;22458;45.328;9.514;2023-02-28T10:26:56;10.82;;;7.28;;
36423;SDS011;22458;45.328;9.514;2023-02-28T10:29:43;9.70;;;6.65;;
36423;SDS011;22458;45.328;9.514;2023-02-28T10:32:11;9.18;;;6.50;;
36423;SDS011;22458;45.328;9.514;2023-02-28T10:34:57;11.18;;;7.50;;
36423;SDS011;22458;45.328;9.514;2023-02-28T10:37:42;8.85;;;6.45;;
36423;SDS011;22458;45.328;9.514;2023-02-28T10:42:42;7.28;;;6.20;;
36423;SDS011;22458;45.328;9.514;2023-02-28T10:45:19;8.32;;;7.20;;
36423;SDS011;22458;45.328;9.514;2023-02-28T10:48:05;8.07;;;6.63;;
36423;SDS011;22458;45.328;9.514;2023-02-28T10:50:52;8.07;;;6.88;;
36423;SDS011;22458;45.328;9.514;2023-02-28T10:58:26;9.25;;;7.72;;
36423;SDS011;22458;45.328;9.514;2023-02-28T11:00:53;8.27;;;6.93;;
36423;SDS011;22458;45.328;9.514;2023-02-28T11:03:32;8.18;;;6.90;;
36423;SDS011;22458;45.328;9.514;2023-02-28T11:06:04;10.05;;;7.20;;
36423;SDS011;22458;45.328;9.514;2023-02-28T11:08:33;9.40;;;6.95;;
36423;SDS011;22458;45.328;9.514;2023-02-28T11:11:01;8.63;;;7.28;;
36423;SDS011;22458;45.328;9.514;2023-02-28T11:13:35;9.55;;;7.88;;
36423;SDS011;22458;45.328;9.514;2023-02-28T11:16:07;9.68;;;7.70;;
36423;SDS011;22458;45.328;9.514;2023-02-28T11:21:19;10.65;;;7.70;;
36423;SDS011;22458;45.328;9.514;2023-02-28T11:24:26;10.60;;;7.82;;
36423;SDS011;22458;45.328;9.514;2023-02-28T11:26:59;8.65;;;7.43;;
36423;SDS011;22458;45.328;9.514;2023-02-28T11:29:26;9.02;;;7.80;;
36423;SDS011;22458;45.328;9.514;2023-02-28T11:34:26;11.10;;;8.43;;
36423;SDS011;22458;45.328;9.514;2023-02-28T11:36:54;10.60;;;7.88;;
36423;SDS011;22458;45.328;9.514;2023-02-28T11:39:22;10.70;;;8.23;;
36423;SDS011;22458;45.328;9.514;2023-02-28T11:47:31;9.38;;;8.10;;
36423;SDS011;22458;45.328;9.514;2023-02-28T11:53:10;11.60;;;8.40;;
36423;SDS011;22458;45.328;9.514;2023-02-28T11:55:45;9.52;;;8.18;;
36423;SDS011;22458;45.328;9.514;2023-02-28T12:23:17;10.90;;;9.10;;
36423;SDS011;22458;45.328;9.514;2023-02-28T12:26:12;11.07;;;8.52;;
36423;SDS011;22458;45.328;9.514;2023-02-28T12:29:02;10.27;;;7.95;;
36423;SDS011;22458;45.328;9.514;2023-02-28T12:31:53;12.30;;;7.93;;
36423;SDS011;22458;45.328;9.514;2023-02-28T12:34:28;9.90;;;8.20;;
36423;SDS011;22458;45.328;9.514;2023-02-28T12:37:01;11.07;;;8.77;;
36423;SDS011;22458;45.328;9.514;2023-02-28T12:39:34;11.15;;;8.02;;
36423;SDS011;22458;45.328;9.514;2023-02-28T12:42:49;12.15;;;8.23;;
36423;SDS011;22458;45.328;9.514;2023-02-28T12:44:54;10.25;;;8.25;;
36423;SDS011;22458;45.328;9.514;2023-02-28T12:47:24;10.52;;;8.80;;
36423;SDS011;22458;45.328;9.514;2023-02-28T12:49:57;10.35;;;7.78;;
36423;SDS011;22458;45.328;9.514;2023-02-28T12:52:54;10.52;;;8.35;;
36423;SDS011;22458;45.328;9.514;2023-02-28T12:58:50;10.10;;;8.15;;
36423;SDS011;22458;45.328;9.514;2023-02-28T13:09:53;9.05;;;7.88;;
36423;SDS011;22458;45.328;9.514;2023-02-28T13:12:23;10.77;;;8.73;;
36423;SDS011;22458;45.328;9.514;2023-02-28T13:14:50;10.23;;;8.10;;
36423;SDS011;22458;45.328;9.514;2023-02-28T13:17:38;10.88;;;8.05;;
36423;SDS011;22458;45.328;9.514;2023-02-28T13:20:14;10.60;;;8.00;;
36423;SDS011;22458;45.328;9.514;2023-02-28T13:22:53;10.13;;;7.78;;
36423;SDS011;22458;45.328;9.514;2023-02-28T13:28:09;10.55;;;8.38;;
36423;SDS011;22458;45.328;9.514;2023-02-28T13:33:36;11.00;;;8.52;;
36423;SDS011;22458;45.328;9.514;2023-02-28T13:36:25;9.60;;;8.38;;
36423;SDS011;22458;45.328;9.514;2023-02-28T13:54:54;10.15;;;7.63;;
36423;SDS011;22458;45.328;9.514;2023-02-28T14:00:21;12.43;;;7.93;;
36423;SDS011;22458;45.328;9.514;2023-02-28T14:03:10;10.27;;;7.60;;
36423;SDS011;22458;45.328;9.514;2023-02-28T14:09:05;9.50;;;7.80;;
36423;SDS011;22458;45.328;9.514;2023-02-28T14:11:44;9.85;;;7.85;;
36423;SDS011;22458;45.328;9.514;2023-02-28T14:17:02;11.05;;;8.60;;
36423;SDS011;22458;45.328;9.514;2023-02-28T14:19:30;12.70;;;8.95;;
36423;SDS011;22458;45.328;9.514;2023-02-28T14:24:51;18.15;;;9.10;;
36423;SDS011;22458;45.328;9.514;2023-02-28T14:27:42;10.25;;;8.10;;
36423;SDS011;22458;45.328;9.514;2023-02-28T14:38:51;9.38;;;8.23;;
36423;SDS011;22458;45.328;9.514;2023-02-28T14:43:55;11.02;;;8.70;;
36423;SDS011;22458;45.328;9.514;2023-02-28T14:46:43;12.32;;;8.40;;
36423;SDS011;22458;45.328;9.514;2023-02-28T14:49:44;11.13;;;8.05;;
36423;SDS011;22458;45.328;9.514;2023-02-28T14:54:56;11.85;;;8.73;;
36423;SDS011;22458;45.328;9.514;2023-02-28T14:57:33;9.25;;;8.32;;
36423;SDS011;22458;45.328;9.514;2023-02-28T15:02:35;10.35;;;8.63;;
36423;SDS011;22458;45.328;9.514;2023-02-28T15:07:37;14.82;;;8.65;;
36423;SDS011;22458;45.328;9.514;2023-02-28T15:10:07;12.88;;;9.85;;
36423;SDS011;22458;45.328;9.514;2023-02-28T15:12:39;10.38;;;8.73;;
36423;SDS011;22458;45.328;9.514;2023-02-28T15:15:14;11.80;;;8.82;;
36423;SDS011;22458;45.328;9.514;2023-02-28T15:17:42;11.80;;;9.77;;
36423;SDS011;22458;45.328;9.514;2023-02-28T15:20:11;10.32;;;8.25;;
36423;SDS011;22458;45.328;9.514;2023-02-28T15:22:40;12.35;;;9.88;;
36423;SDS011;22458;45.328;9.514;2023-02-28T15:25:06;11.65;;;9.27;;
36423;SDS011;22458;45.328;9.514;2023-02-28T15:27:35;13.52;;;10.05;;
36423;SDS011;22458;45.328;9.514;2023-02-28T15:30:18;9.82;;;7.95;;
36423;SDS011;22458;45.328;9.514;2023-02-28T15:35:33;9.98;;;8.75;;
36423;SDS011;22458;45.328;9.514;2023-02-28T15:38:01;12.77;;;8.68;;
36423;SDS011;22458;45.328;9.514;2023-02-28T15:40:37;12.85;;;9.63;;
36423;SDS011;22458;45.328;9.514;2023-02-28T15:43:11;13.60;;;9.30;;
36423;SDS011;22458;45.328;9.514;2023-02-28T15:45:46;11.40;;;9.38;;
36423;SDS011;22458;45.328;9.514;2023-02-28T15:48:22;10.30;;;8.93;;
36423;SDS011;22458;45.328;9.514;2023-02-28T15:50:54;11.85;;;9.50;;
36423;SDS011;22458;45.328;9.514;2023-02-28T15:53:37;11.15;;;9.95;;
36423;SDS011;22458;45.328;9.514;2023-02-28T15:56:25;13.30;;;10.43;;
36423;SDS011;22458;45.328;9.514;2023-02-28T15:58:53;10.77;;;9.00;;
36423;SDS011;22458;45.328;9.514;2023-02-28T16:01:24;12.65;;;8.73;;
36423;SDS011;22458;45.328;9.514;2023-02-28T16:04:19;10.93;;;9.30;;
36423;SDS011;22458;45.328;9.514;2023-02-28T16:07:01;12.80;;;10.05;;
36423;SDS011;22458;45.328;9.514;2023-02-28T16:09:29;11.73;;;9.82;;
36423;SDS011;22458;45.328;9.514;2023-02-28T16:11:56;11.25;;;9.90;;
36423;SDS011;22458;45.328;9.514;2023-02-28T16:14:30;11.05;;;9.52;;
36423;SDS011;22458;45.328;9.514;2023-02-28T16:16:57;12.13;;;9.85;;
36423;SDS011;22458;45.328;9.514;2023-02-28T16:19:28;11.18;;;9.20;;
36423;SDS011;22458;45.328;9.514;2023-02-28T16:21:54;12.57;;;9.98;;
36423;SDS011;22458;45.328;9.514;2023-02-28T16:24:20;12.18;;;9.80;;
36423;SDS011;22458;45.328;9.514;2023-02-28T16:26:47;12.13;;;9.90;;
36423;SDS011;22458;45.328;9.514;2023-02-28T16:29:16;13.30;;;10.45;;
36423;SDS011;22458;45.328;9.514;2023-02-28T16:31:49;14.27;;;10.73;;
36423;SDS011;22458;45.328;9.514;2023-02-28T16:34:14;13.95;;;11.23;;
36423;SDS011;22458;45.328;9.514;2023-02-28T16:36:40;12.60;;;10.15;;
36423;SDS011;22458;45.328;9.514;2023-02-28T16:39:06;15.88;;;10.52;;
36423;SDS011;22458;45.328;9.514;2023-02-28T16:41:32;17.50;;;12.38;;
36423;SDS011;22458;45.328;9.514;2023-02-28T16:43:59;12.73;;;10.90;;
36423;SDS011;22458;45.328;9.514;2023-02-28T16:46:33;13.13;;;10.65;;
36423;SDS011;22458;45.328;9.514;2023-02-28T16:48:59;15.75;;;10.73;;
36423;SDS011;22458;45.328;9.514;2023-02-28T16:51:25;12.98;;;10.60;;
36423;SDS011;22458;45.328;9.514;2023-02-28T16:53:52;15.75;;;11.63;;
36423;SDS011;22458;45.328;9.514;2023-02-28T16:56:22;13.13;;;10.63;;
36423;SDS011;22458;45.328;9.514;2023-02-28T16:58:50;12.77;;;10.35;;
36423;SDS011;22458;45.328;9.514;2023-02-28T17:01:17;13.40;;;10.93;;
36423;SDS011;22458;45.328;9.514;2023-02-28T17:03:47;13.90;;;11.20;;
36423;SDS011;22458;45.328;9.514;2023-02-28T17:06:20;17.90;;;10.73;;
36423;SDS011;22458;45.328;9.514;2023-02-28T17:08:50;14.65;;;10.43;;
36423;SDS011;22458;45.328;9.514;2023-02-28T17:11:16;12.10;;;10.35;;
36423;SDS011;22458;45.328;9.514;2023-02-28T17:13:43;13.35;;;11.20;;
36423;SDS011;22458;45.328;9.514;2023-02-28T17:16:42;13.05;;;10.35;;
36423;SDS011;22458;45.328;9.514;2023-02-28T17:19:03;16.10;;;11.43;;
36423;SDS011;22458;45.328;9.514;2023-02-28T17:21:30;15.70;;;12.45;;
36423;SDS011;22458;45.328;9.514;2023-02-28T17:23:57;17.67;;;11.68;;
36423;SDS011;22458;45.328;9.514;2023-02-28T17:26:23;22.50;;;17.17;;
36423;SDS011;22458;45.328;9.514;2023-02-28T17:28:53;19.05;;;15.18;;
36423;SDS011;22458;45.328;9.514;2023-02-28T17:31:21;18.40;;;13.50;;
36423;SDS011;22458;45.328;9.514;2023-02-28T17:33:47;17.35;;;13.60;;
36423;SDS011;22458;45.328;9.514;2023-02-28T17:36:14;18.45;;;14.02;;
36423;SDS011;22458;45.328;9.514;2023-02-28T17:38:41;19.35;;;14.75;;
36423;SDS011;22458;45.328;9.514;2023-02-28T17:41:10;17.63;;;14.15;;
36423;SDS011;22458;45.328;9.514;2023-02-28T17:46:02;16.95;;;12.75;;
36423;SDS011;22458;45.328;9.514;2023-02-28T17:48:30;17.92;;;14.45;;
36423;SDS011;22458;45.328;9.514;2023-02-28T17:50:56;17.13;;;13.07;;
36423;SDS011;22458;45.328;9.514;2023-02-28T17:53:22;19.83;;;14.65;;